sensor_id;sensor_type;location;lat;lon;timestamp;pressure;altitude;pressure_sealevel;temperature;humidity
80892;BME280;70343;51.530;5.050;2024-01-25T00:01:41;102802.91;;;7.69;100.00
80892;BME280;70343;51.530;5.050;2024-01-25T00:04:07;102807.88;;;7.61;100.00
80892;BME280;70343;51.530;5.050;2024-01-25T00:06:32;102818.88;;;7.54;100.00
80892;BME280;70343;51.530;5.050;2024-01-25T00:08:58;102819.34;;;7.48;100.00
80892;BME280;70343;51.530;5.050;2024-01-25T00:11:24;102802.63;;;7.41;100.00
80892;BME280;70343;51.530;5.050;2024-01-25T00:13:49;102802.84;;;7.38;100.00
80892;BME280;70343;51.530;5.050;2024-01-25T00:16:15;102813.22;;;7.38;100.00
80892;BME280;70343;51.530;5.050;2024-01-25T00:18:41;102822.19;;;7.34;100.00
80892;BME280;70343;51.530;5.050;2024-01-25T00:21:06;102813.94;;;7.29;100.00
80892;BME280;70343;51.530;5.050;2024-01-25T00:23:32;102799.31;;;7.28;100.00
80892;BME280;70343;51.530;5.050;2024-01-25T00:25:58;102794.50;;;7.23;100.00
80892;BME280;70343;51.530;5.050;2024-01-25T00:28:26;102805.94;;;7.20;100.00
80892;BME280;70343;51.530;5.050;2024-01-25T00:30:51;102808.06;;;7.15;100.00
80892;BME280;70343;51.530;5.050;2024-01-25T00:33:17;102809.84;;;7.15;100.00
80892;BME280;70343;51.530;5.050;2024-01-25T00:35:43;102801.56;;;7.10;100.00
80892;BME280;70343;51.530;5.050;2024-01-25T00:38:09;102797.59;;;7.06;100.00
80892;BME280;70343;51.530;5.050;2024-01-25T00:40:35;102798.75;;;7.02;100.00
80892;BME280;70343;51.530;5.050;2024-01-25T00:43:00;102801.56;;;6.99;100.00
80892;BME280;70343;51.530;5.050;2024-01-25T00:45:26;102801.13;;;6.94;100.00
80892;BME280;70343;51.530;5.050;2024-01-25T00:47:52;102805.59;;;6.92;100.00
80892;BME280;70343;51.530;5.050;2024-01-25T00:50:18;102809.94;;;6.91;100.00
80892;BME280;70343;51.530;5.050;2024-01-25T00:52:50;102792.03;;;6.88;100.00
80892;BME280;70343;51.530;5.050;2024-01-25T00:55:16;102795.56;;;6.87;100.00
80892;BME280;70343;51.530;5.050;2024-01-25T00:57:42;102807.09;;;6.83;100.00
80892;BME280;70343;51.530;5.050;2024-01-25T01:00:08;102809.94;;;6.80;100.00
80892;BME280;70343;51.530;5.050;2024-01-25T01:02:42;102802.50;;;6.76;100.00
80892;BME280;70343;51.530;5.050;2024-01-25T01:05:09;102805.22;;;6.74;100.00
80892;BME280;70343;51.530;5.050;2024-01-25T01:07:35;102802.25;;;6.68;100.00
80892;BME280;70343;51.530;5.050;2024-01-25T01:10:01;102810.97;;;6.67;100.00
80892;BME280;70343;51.530;5.050;2024-01-25T01:12:26;102810.28;;;6.65;100.00
80892;BME280;70343;51.530;5.050;2024-01-25T01:14:52;102820.72;;;6.63;100.00
80892;BME280;70343;51.530;5.050;2024-01-25T01:17:17;102818.50;;;6.59;100.00
80892;BME280;70343;51.530;5.050;2024-01-25T01:19:44;102815.31;;;6.55;100.00
80892;BME280;70343;51.530;5.050;2024-01-25T01:22:10;102806.84;;;6.53;100.00
80892;BME280;70343;51.530;5.050;2024-01-25T01:24:35;102811.06;;;6.54;100.00
80892;BME280;70343;51.530;5.050;2024-01-25T01:27:01;102833.91;;;6.49;100.00
80892;BME280;70343;51.530;5.050;2024-01-25T01:29:26;102828.94;;;6.46;100.00
80892;BME280;70343;51.530;5.050;2024-01-25T01:31:52;102824.00;;;6.43;100.00
80892;BME280;70343;51.530;5.050;2024-01-25T01:34:17;102829.19;;;6.43;100.00
80892;BME280;70343;51.530;5.050;2024-01-25T01:36:43;102841.53;;;6.40;100.00
80892;BME280;70343;51.530;5.050;2024-01-25T01:39:09;102837.53;;;6.36;100.00
80892;BME280;70343;51.530;5.050;2024-01-25T01:41:35;102840.19;;;6.34;100.00
80892;BME280;70343;51.530;5.050;2024-01-25T01:44:01;102835.25;;;6.31;100.00
80892;BME280;70343;51.530;5.050;2024-01-25T01:46:36;102833.81;;;6.27;100.00
80892;BME280;70343;51.530;5.050;2024-01-25T01:49:03;102836.53;;;6.25;100.00
80892;BME280;70343;51.530;5.050;2024-01-25T01:51:30;102843.72;;;6.22;100.00
80892;BME280;70343;51.530;5.050;2024-01-25T01:53:57;102843.81;;;6.20;100.00
80892;BME280;70343;51.530;5.050;2024-01-25T01:56:27;102841.44;;;6.17;100.00
80892;BME280;70343;51.530;5.050;2024-01-25T01:58:56;102843.31;;;6.15;100.00
80892;BME280;70343;51.530;5.050;2024-01-25T02:01:24;102853.88;;;6.12;100.00
80892;BME280;70343;51.530;5.050;2024-01-25T02:03:49;102857.31;;;6.13;100.00
80892;BME280;70343;51.530;5.050;2024-01-25T02:06:15;102845.31;;;6.12;100.00
80892;BME280;70343;51.530;5.050;2024-01-25T02:08:40;102857.44;;;6.11;100.00
80892;BME280;70343;51.530;5.050;2024-01-25T02:11:06;102870.69;;;6.07;100.00
80892;BME280;70343;51.530;5.050;2024-01-25T02:13:33;102870.09;;;6.03;100.00
80892;BME280;70343;51.530;5.050;2024-01-25T02:15:58;102871.13;;;6.01;100.00
80892;BME280;70343;51.530;5.050;2024-01-25T02:18:24;102873.13;;;5.97;100.00
80892;BME280;70343;51.530;5.050;2024-01-25T02:20:49;102882.75;;;5.95;100.00
80892;BME280;70343;51.530;5.050;2024-01-25T02:23:15;102883.19;;;5.89;100.00
80892;BME280;70343;51.530;5.050;2024-01-25T02:25:40;102879.88;;;5.87;100.00
80892;BME280;70343;51.530;5.050;2024-01-25T02:28:06;102877.53;;;5.84;100.00
80892;BME280;70343;51.530;5.050;2024-01-25T02:30:31;102883.94;;;5.79;100.00
80892;BME280;70343;51.530;5.050;2024-01-25T02:32:57;102894.47;;;5.76;100.00
80892;BME280;70343;51.530;5.050;2024-01-25T02:35:22;102888.28;;;5.66;100.00
80892;BME280;70343;51.530;5.050;2024-01-25T02:37:48;102888.28;;;5.66;100.00
80892;BME280;70343;51.530;5.050;2024-01-25T02:40:16;102886.16;;;5.60;100.00
80892;BME280;70343;51.530;5.050;2024-01-25T02:42:41;102891.34;;;5.60;100.00
80892;BME280;70343;51.530;5.050;2024-01-25T02:45:07;102894.00;;;5.58;100.00
80892;BME280;70343;51.530;5.050;2024-01-25T02:47:33;102883.16;;;5.53;100.00
80892;BME280;70343;51.530;5.050;2024-01-25T02:49:58;102892.66;;;5.53;100.00
80892;BME280;70343;51.530;5.050;2024-01-25T02:52:24;102887.72;;;5.50;100.00
80892;BME280;70343;51.530;5.050;2024-01-25T02:54:49;102892.28;;;5.46;100.00
80892;BME280;70343;51.530;5.050;2024-01-25T02:57:15;102898.50;;;5.43;100.00
80892;BME280;70343;51.530;5.050;2024-01-25T02:59:41;102897.66;;;5.43;100.00
80892;BME280;70343;51.530;5.050;2024-01-25T03:02:06;102891.63;;;5.42;100.00
80892;BME280;70343;51.530;5.050;2024-01-25T03:04:32;102892.59;;;5.41;100.00
80892;BME280;70343;51.530;5.050;2024-01-25T03:06:57;102890.31;;;5.37;100.00
80892;BME280;70343;51.530;5.050;2024-01-25T03:09:22;102889.69;;;5.33;100.00
80892;BME280;70343;51.530;5.050;2024-01-25T03:11:49;102886.28;;;5.33;100.00
80892;BME280;70343;51.530;5.050;2024-01-25T03:14:15;102881.53;;;5.27;100.00
80892;BME280;70343;51.530;5.050;2024-01-25T03:16:40;102887.63;;;5.26;100.00
80892;BME280;70343;51.530;5.050;2024-01-25T03:19:06;102884.22;;;5.25;100.00
80892;BME280;70343;51.530;5.050;2024-01-25T03:21:31;102880.91;;;5.23;100.00
80892;BME280;70343;51.530;5.050;2024-01-25T03:23:57;102884.63;;;5.19;100.00
80892;BME280;70343;51.530;5.050;2024-01-25T03:26:22;102879.69;;;5.16;100.00
80892;BME280;70343;51.530;5.050;2024-01-25T03:28:48;102876.56;;;5.11;100.00
80892;BME280;70343;51.530;5.050;2024-01-25T03:31:13;102879.47;;;5.07;100.00
80892;BME280;70343;51.530;5.050;2024-01-25T03:33:38;102870.28;;;5.03;100.00
80892;BME280;70343;51.530;5.050;2024-01-25T03:36:05;102878.63;;;5.06;100.00
80892;BME280;70343;51.530;5.050;2024-01-25T03:38:31;102871.41;;;4.99;100.00
80892;BME280;70343;51.530;5.050;2024-01-25T03:40:57;102891.88;;;5.02;100.00
80892;BME280;70343;51.530;5.050;2024-01-25T03:43:27;102889.59;;;4.97;100.00
80892;BME280;70343;51.530;5.050;2024-01-25T03:45:53;102886.47;;;4.92;100.00
80892;BME280;70343;51.530;5.050;2024-01-25T03:48:18;102882.25;;;4.91;100.00
80892;BME280;70343;51.530;5.050;2024-01-25T03:50:44;102877.50;;;4.85;100.00
80892;BME280;70343;51.530;5.050;2024-01-25T03:53:09;102879.13;;;4.86;100.00
80892;BME280;70343;51.530;5.050;2024-01-25T03:55:35;102888.56;;;4.87;100.00
80892;BME280;70343;51.530;5.050;2024-01-25T03:58:00;102904.25;;;4.84;100.00
80892;BME280;70343;51.530;5.050;2024-01-25T04:00:26;102893.19;;;4.82;100.00
80892;BME280;70343;51.530;5.050;2024-01-25T04:02:51;102896.59;;;4.83;100.00
80892;BME280;70343;51.530;5.050;2024-01-25T04:05:17;102899.31;;;4.81;100.00
80892;BME280;70343;51.530;5.050;2024-01-25T04:07:42;102904.78;;;4.89;100.00
80892;BME280;70343;51.530;5.050;2024-01-25T04:10:08;102908.59;;;4.84;100.00
80892;BME280;70343;51.530;5.050;2024-01-25T04:12:34;102892.56;;;4.79;100.00
80892;BME280;70343;51.530;5.050;2024-01-25T04:14:59;102885.75;;;4.78;100.00
80892;BME280;70343;51.530;5.050;2024-01-25T04:17:25;102891.84;;;4.77;100.00
80892;BME280;70343;51.530;5.050;2024-01-25T04:19:51;102893.41;;;4.79;100.00
80892;BME280;70343;51.530;5.050;2024-01-25T04:22:16;102893.50;;;4.78;100.00
80892;BME280;70343;51.530;5.050;2024-01-25T04:24:42;102887.91;;;4.71;100.00
80892;BME280;70343;51.530;5.050;2024-01-25T04:27:09;102887.91;;;4.71;100.00
80892;BME280;70343;51.530;5.050;2024-01-25T04:29:38;102887.28;;;4.80;100.00
80892;BME280;70343;51.530;5.050;2024-01-25T04:32:04;102891.22;;;4.73;100.00
80892;BME280;70343;51.530;5.050;2024-01-25T04:34:30;102895.78;;;4.70;100.00
80892;BME280;70343;51.530;5.050;2024-01-25T04:36:55;102895.94;;;4.67;100.00
80892;BME280;70343;51.530;5.050;2024-01-25T04:39:21;102893.47;;;4.65;100.00
80892;BME280;70343;51.530;5.050;2024-01-25T04:41:47;102890.16;;;4.63;100.00
80892;BME280;70343;51.530;5.050;2024-01-25T04:44:12;102902.34;;;4.61;100.00
80892;BME280;70343;51.530;5.050;2024-01-25T04:46:38;102894.81;;;4.58;100.00
80892;BME280;70343;51.530;5.050;2024-01-25T04:49:04;102891.56;;;4.54;100.00
80892;BME280;70343;51.530;5.050;2024-01-25T04:51:29;102885.78;;;4.51;100.00
80892;BME280;70343;51.530;5.050;2024-01-25T04:53:55;102885.78;;;4.51;100.00
80892;BME280;70343;51.530;5.050;2024-01-25T04:56:20;102887.66;;;4.49;100.00
80892;BME280;70343;51.530;5.050;2024-01-25T04:58:46;102893.84;;;4.46;100.00
80892;BME280;70343;51.530;5.050;2024-01-25T05:01:11;102887.03;;;4.45;100.00
80892;BME280;70343;51.530;5.050;2024-01-25T05:03:37;102890.44;;;4.46;100.00
80892;BME280;70343;51.530;5.050;2024-01-25T05:06:03;102882.97;;;4.41;100.00
80892;BME280;70343;51.530;5.050;2024-01-25T05:08:28;102885.84;;;4.37;100.00
80892;BME280;70343;51.530;5.050;2024-01-25T05:10:54;102891.13;;;4.35;100.00
80892;BME280;70343;51.530;5.050;2024-01-25T05:13:20;102895.66;;;4.32;100.00
80892;BME280;70343;51.530;5.050;2024-01-25T05:15:45;102898.63;;;4.26;100.00
80892;BME280;70343;51.530;5.050;2024-01-25T05:18:11;102883.53;;;4.20;100.00
80892;BME280;70343;51.530;5.050;2024-01-25T05:20:36;102881.16;;;4.17;100.00
80892;BME280;70343;51.530;5.050;2024-01-25T05:23:03;102882.78;;;4.18;100.00
80892;BME280;70343;51.530;5.050;2024-01-25T05:25:29;102893.47;;;4.26;100.00
80892;BME280;70343;51.530;5.050;2024-01-25T05:27:56;102884.88;;;4.25;100.00
80892;BME280;70343;51.530;5.050;2024-01-25T05:30:22;102893.56;;;4.24;100.00
80892;BME280;70343;51.530;5.050;2024-01-25T05:32:47;102897.72;;;4.27;100.00
80892;BME280;70343;51.530;5.050;2024-01-25T05:35:15;102894.19;;;4.28;100.00
80892;BME280;70343;51.530;5.050;2024-01-25T05:37:41;102899.34;;;4.28;100.00
80892;BME280;70343;51.530;5.050;2024-01-25T05:40:07;102897.78;;;4.25;100.00
80892;BME280;70343;51.530;5.050;2024-01-25T05:42:32;102900.38;;;4.25;100.00
80892;BME280;70343;51.530;5.050;2024-01-25T05:44:58;102898.84;;;4.23;100.00
80892;BME280;70343;51.530;5.050;2024-01-25T05:47:24;102903.16;;;4.22;100.00
80892;BME280;70343;51.530;5.050;2024-01-25T05:49:49;102897.66;;;4.14;100.00
80892;BME280;70343;51.530;5.050;2024-01-25T05:52:15;102895.16;;;4.13;100.00
80892;BME280;70343;51.530;5.050;2024-01-25T05:54:40;102892.69;;;4.11;100.00
80892;BME280;70343;51.530;5.050;2024-01-25T05:57:06;102885.97;;;4.09;100.00
80892;BME280;70343;51.530;5.050;2024-01-25T05:59:31;102897.31;;;4.06;100.00
80892;BME280;70343;51.530;5.050;2024-01-25T06:01:57;102900.19;;;4.02;100.00
80892;BME280;70343;51.530;5.050;2024-01-25T06:04:22;102905.53;;;3.99;100.00
80892;BME280;70343;51.530;5.050;2024-01-25T06:06:48;102906.13;;;3.90;100.00
80892;BME280;70343;51.530;5.050;2024-01-25T06:09:14;102905.56;;;3.85;100.00
80892;BME280;70343;51.530;5.050;2024-01-25T06:11:40;102901.44;;;3.82;100.00
80892;BME280;70343;51.530;5.050;2024-01-25T06:14:06;102900.59;;;3.82;100.00
80892;BME280;70343;51.530;5.050;2024-01-25T06:16:31;102901.44;;;3.82;100.00
80892;BME280;70343;51.530;5.050;2024-01-25T06:18:57;102896.16;;;3.84;100.00
80892;BME280;70343;51.530;5.050;2024-01-25T06:21:25;102905.75;;;3.82;100.00
80892;BME280;70343;51.530;5.050;2024-01-25T06:23:50;102898.91;;;3.81;100.00
80892;BME280;70343;51.530;5.050;2024-01-25T06:26:16;102906.75;;;3.79;100.00
80892;BME280;70343;51.530;5.050;2024-01-25T06:28:41;102903.66;;;3.74;100.00
80892;BME280;70343;51.530;5.050;2024-01-25T06:31:07;102919.94;;;3.75;100.00
80892;BME280;70343;51.530;5.050;2024-01-25T06:33:32;102916.63;;;3.73;100.00
80892;BME280;70343;51.530;5.050;2024-01-25T06:35:58;102907.44;;;3.69;100.00
80892;BME280;70343;51.530;5.050;2024-01-25T06:38:23;102913.50;;;3.68;100.00
80892;BME280;70343;51.530;5.050;2024-01-25T06:40:49;102907.88;;;3.61;100.00
80892;BME280;70343;51.530;5.050;2024-01-25T06:43:14;102918.41;;;3.58;100.00
80892;BME280;70343;51.530;5.050;2024-01-25T06:45:40;102917.75;;;3.54;100.00
80892;BME280;70343;51.530;5.050;2024-01-25T06:48:07;102900.72;;;3.52;100.00
80892;BME280;70343;51.530;5.050;2024-01-25T06:50:34;102901.72;;;3.49;100.00
80892;BME280;70343;51.530;5.050;2024-01-25T06:52:59;102904.28;;;3.49;100.00
80892;BME280;70343;51.530;5.050;2024-01-25T06:55:25;102915.81;;;3.44;100.00
80892;BME280;70343;51.530;5.050;2024-01-25T06:57:50;102915.19;;;3.40;100.00
80892;BME280;70343;51.530;5.050;2024-01-25T07:00:16;102918.66;;;3.39;100.00
80892;BME280;70343;51.530;5.050;2024-01-25T07:02:42;102915.06;;;3.42;100.00
80892;BME280;70343;51.530;5.050;2024-01-25T07:05:08;102924.56;;;3.41;100.00
80892;BME280;70343;51.530;5.050;2024-01-25T07:07:34;102912.41;;;3.43;100.00
80892;BME280;70343;51.530;5.050;2024-01-25T07:09:59;102911.97;;;3.51;100.00
80892;BME280;70343;51.530;5.050;2024-01-25T07:12:25;102916.19;;;3.52;100.00
80892;BME280;70343;51.530;5.050;2024-01-25T07:14:51;102910.28;;;3.50;100.00
80892;BME280;70343;51.530;5.050;2024-01-25T07:17:16;102905.78;;;3.53;100.00
80892;BME280;70343;51.530;5.050;2024-01-25T07:19:42;102920.88;;;3.59;100.00
80892;BME280;70343;51.530;5.050;2024-01-25T07:22:07;102921.88;;;3.57;100.00
80892;BME280;70343;51.530;5.050;2024-01-25T07:24:33;102931.75;;;3.65;100.00
80892;BME280;70343;51.530;5.050;2024-01-25T07:26:58;102933.31;;;3.67;100.00
80892;BME280;70343;51.530;5.050;2024-01-25T07:29:24;102922.63;;;3.73;100.00
80892;BME280;70343;51.530;5.050;2024-01-25T07:31:50;102932.09;;;3.73;100.00
80892;BME280;70343;51.530;5.050;2024-01-25T07:34:15;102931.56;;;3.82;100.00
80892;BME280;70343;51.530;5.050;2024-01-25T07:36:41;102927.88;;;3.86;100.00
80892;BME280;70343;51.530;5.050;2024-01-25T07:39:06;102930.97;;;3.91;100.00
80892;BME280;70343;51.530;5.050;2024-01-25T07:41:33;102930.59;;;3.97;100.00
80892;BME280;70343;51.530;5.050;2024-01-25T07:43:59;102933.94;;;3.99;100.00
80892;BME280;70343;51.530;5.050;2024-01-25T07:46:24;102931.16;;;4.02;100.00
80892;BME280;70343;51.530;5.050;2024-01-25T07:48:50;102925.91;;;4.03;100.00
80892;BME280;70343;51.530;5.050;2024-01-25T07:51:15;102928.19;;;4.08;100.00
80892;BME280;70343;51.530;5.050;2024-01-25T07:53:41;102928.19;;;4.08;100.00
80892;BME280;70343;51.530;5.050;2024-01-25T07:56:07;102923.00;;;4.08;100.00
80892;BME280;70343;51.530;5.050;2024-01-25T07:58:34;102928.00;;;4.11;100.00
80892;BME280;70343;51.530;5.050;2024-01-25T08:01:03;102930.47;;;4.12;100.00
80892;BME280;70343;51.530;5.050;2024-01-25T08:03:29;102931.22;;;4.14;100.00
80892;BME280;70343;51.530;5.050;2024-01-25T08:05:54;102933.78;;;4.14;100.00
80892;BME280;70343;51.530;5.050;2024-01-25T08:08:20;102946.44;;;4.19;100.00
80892;BME280;70343;51.530;5.050;2024-01-25T08:10:45;102932.56;;;4.20;100.00
80892;BME280;70343;51.530;5.050;2024-01-25T08:13:12;102897.25;;;4.20;100.00
80892;BME280;70343;51.530;5.050;2024-01-25T08:15:38;102915.25;;;4.22;100.00
80892;BME280;70343;51.530;5.050;2024-01-25T08:18:04;102917.63;;;4.25;100.00
80892;BME280;70343;51.530;5.050;2024-01-25T08:20:29;102901.75;;;4.31;100.00
80892;BME280;70343;51.530;5.050;2024-01-25T08:22:55;102901.34;;;4.37;100.00
80892;BME280;70343;51.530;5.050;2024-01-25T08:25:20;102921.63;;;4.43;100.00
80892;BME280;70343;51.530;5.050;2024-01-25T08:27:46;102937.47;;;4.51;100.00
80892;BME280;70343;51.530;5.050;2024-01-25T08:30:12;102936.53;;;4.52;100.00
80892;BME280;70343;51.530;5.050;2024-01-25T08:32:37;102938.91;;;4.55;100.00
80892;BME280;70343;51.530;5.050;2024-01-25T08:35:03;102925.09;;;4.56;100.00
80892;BME280;70343;51.530;5.050;2024-01-25T08:37:29;102919.72;;;4.59;100.00
80892;BME280;70343;51.530;5.050;2024-01-25T08:39:54;102919.53;;;4.62;100.00
80892;BME280;70343;51.530;5.050;2024-01-25T08:42:20;102913.94;;;4.68;100.00
80892;BME280;70343;51.530;5.050;2024-01-25T08:44:46;102925.31;;;4.78;100.00
80892;BME280;70343;51.530;5.050;2024-01-25T08:47:16;102930.50;;;4.78;100.00
80892;BME280;70343;51.530;5.050;2024-01-25T08:49:42;102923.59;;;4.79;100.00
80892;BME280;70343;51.530;5.050;2024-01-25T08:52:08;102936.22;;;4.83;100.00
80892;BME280;70343;51.530;5.050;2024-01-25T08:54:33;102929.91;;;4.87;100.00
80892;BME280;70343;51.530;5.050;2024-01-25T08:56:59;102931.44;;;4.90;100.00
80892;BME280;70343;51.530;5.050;2024-01-25T08:59:25;102925.47;;;4.89;100.00
80892;BME280;70343;51.530;5.050;2024-01-25T09:01:52;102932.84;;;4.95;100.00
80892;BME280;70343;51.530;5.050;2024-01-25T09:04:17;102924.56;;;5.03;100.00
80892;BME280;70343;51.530;5.050;2024-01-25T09:06:43;102918.16;;;5.08;100.00
80892;BME280;70343;51.530;5.050;2024-01-25T09:09:09;102925.78;;;5.10;100.00
80892;BME280;70343;51.530;5.050;2024-01-25T09:11:36;102932.94;;;5.06;100.00
80892;BME280;70343;51.530;5.050;2024-01-25T09:14:01;102931.50;;;5.15;100.00
80892;BME280;70343;51.530;5.050;2024-01-25T09:16:27;102925.81;;;5.22;100.00
80892;BME280;70343;51.530;5.050;2024-01-25T09:18:52;102937.63;;;5.26;100.00
80892;BME280;70343;51.530;5.050;2024-01-25T09:21:18;102938.22;;;5.42;100.00
80892;BME280;70343;51.530;5.050;2024-01-25T09:23:43;102946.69;;;5.44;100.00
80892;BME280;70343;51.530;5.050;2024-01-25T09:26:09;102932.44;;;5.52;100.00
80892;BME280;70343;51.530;5.050;2024-01-25T09:28:35;102929.63;;;5.55;100.00
80892;BME280;70343;51.530;5.050;2024-01-25T09:31:00;102918.31;;;5.68;100.00
80892;BME280;70343;51.530;5.050;2024-01-25T09:33:26;102913.25;;;5.67;100.00
80892;BME280;70343;51.530;5.050;2024-01-25T09:35:51;102923.91;;;5.75;100.00
80892;BME280;70343;51.530;5.050;2024-01-25T09:38:17;102933.13;;;5.66;100.00
80892;BME280;70343;51.530;5.050;2024-01-25T09:40:42;102937.34;;;5.80;100.00
80892;BME280;70343;51.530;5.050;2024-01-25T09:43:08;102948.53;;;5.80;100.00
80892;BME280;70343;51.530;5.050;2024-01-25T09:45:33;102938.91;;;5.82;100.00
80892;BME280;70343;51.530;5.050;2024-01-25T09:48:00;102935.91;;;5.88;100.00
80892;BME280;70343;51.530;5.050;2024-01-25T09:50:30;102923.69;;;5.90;100.00
80892;BME280;70343;51.530;5.050;2024-01-25T09:52:59;102932.13;;;6.05;100.00
80892;BME280;70343;51.530;5.050;2024-01-25T09:55:26;102940.72;;;6.18;100.00
80892;BME280;70343;51.530;5.050;2024-01-25T09:57:55;102920.47;;;6.23;100.00
80892;BME280;70343;51.530;5.050;2024-01-25T10:00:24;102919.63;;;6.22;100.00
80892;BME280;70343;51.530;5.050;2024-01-25T10:02:50;102920.03;;;6.29;100.00
80892;BME280;70343;51.530;5.050;2024-01-25T10:05:16;102920.03;;;6.29;100.00
80892;BME280;70343;51.530;5.050;2024-01-25T10:07:43;102916.13;;;6.23;100.00
80892;BME280;70343;51.530;5.050;2024-01-25T10:10:10;102908.84;;;6.28;100.00
80892;BME280;70343;51.530;5.050;2024-01-25T10:12:37;102907.69;;;6.32;100.00
80892;BME280;70343;51.530;5.050;2024-01-25T10:15:04;102908.19;;;6.38;100.00
80892;BME280;70343;51.530;5.050;2024-01-25T10:17:30;102901.13;;;6.40;100.00
80892;BME280;70343;51.530;5.050;2024-01-25T10:19:56;102890.31;;;6.46;100.00
80892;BME280;70343;51.530;5.050;2024-01-25T10:22:22;102884.81;;;6.61;100.00
80892;BME280;70343;51.530;5.050;2024-01-25T10:24:48;102884.22;;;6.58;100.00
80892;BME280;70343;51.530;5.050;2024-01-25T10:27:16;102896.16;;;6.71;100.00
80892;BME280;70343;51.530;5.050;2024-01-25T10:29:42;102895.00;;;6.75;100.00
80892;BME280;70343;51.530;5.050;2024-01-25T10:32:08;102883.91;;;6.73;100.00
80892;BME280;70343;51.530;5.050;2024-01-25T10:34:35;102882.28;;;6.72;100.00
80892;BME280;70343;51.530;5.050;2024-01-25T10:37:03;102882.03;;;6.75;100.00
80892;BME280;70343;51.530;5.050;2024-01-25T10:39:30;102880.06;;;6.90;100.00
80892;BME280;70343;51.530;5.050;2024-01-25T10:41:58;102882.78;;;6.88;100.00
80892;BME280;70343;51.530;5.050;2024-01-25T10:44:24;102884.81;;;7.07;100.00
80892;BME280;70343;51.530;5.050;2024-01-25T10:46:50;102885.91;;;7.15;100.00
80892;BME280;70343;51.530;5.050;2024-01-25T10:49:17;102888.25;;;7.07;100.00
80892;BME280;70343;51.530;5.050;2024-01-25T10:51:44;102893.91;;;7.12;100.00
80892;BME280;70343;51.530;5.050;2024-01-25T10:54:14;102890.13;;;7.05;100.00
80892;BME280;70343;51.530;5.050;2024-01-25T10:56:45;102881.88;;;7.11;100.00
80892;BME280;70343;51.530;5.050;2024-01-25T10:59:11;102870.56;;;7.12;100.00
80892;BME280;70343;51.530;5.050;2024-01-25T11:01:37;102870.06;;;7.30;100.00
80892;BME280;70343;51.530;5.050;2024-01-25T11:04:03;102858.06;;;7.17;100.00
80892;BME280;70343;51.530;5.050;2024-01-25T11:06:36;102852.53;;;7.33;100.00
80892;BME280;70343;51.530;5.050;2024-01-25T11:09:06;102851.13;;;7.29;100.00
80892;BME280;70343;51.530;5.050;2024-01-25T11:11:32;102827.38;;;7.34;100.00
80892;BME280;70343;51.530;5.050;2024-01-25T11:13:58;102833.66;;;7.31;100.00
80892;BME280;70343;51.530;5.050;2024-01-25T11:16:31;102821.97;;;7.37;100.00
80892;BME280;70343;51.530;5.050;2024-01-25T11:18:59;102823.03;;;7.34;100.00
80892;BME280;70343;51.530;5.050;2024-01-25T11:21:41;102831.41;;;7.49;100.00
80892;BME280;70343;51.530;5.050;2024-01-25T11:24:12;102829.59;;;7.49;100.00
80892;BME280;70343;51.530;5.050;2024-01-25T11:26:39;102819.81;;;7.64;100.00
80892;BME280;70343;51.530;5.050;2024-01-25T11:29:04;102810.81;;;7.68;100.00
80892;BME280;70343;51.530;5.050;2024-01-25T11:31:30;102813.88;;;7.73;100.00
80892;BME280;70343;51.530;5.050;2024-01-25T11:33:57;102824.72;;;7.78;100.00
80892;BME280;70343;51.530;5.050;2024-01-25T11:36:24;102827.66;;;7.84;100.00
80892;BME280;70343;51.530;5.050;2024-01-25T11:38:50;102828.25;;;7.88;100.00
80892;BME280;70343;51.530;5.050;2024-01-25T11:41:15;102822.03;;;8.00;100.00
80892;BME280;70343;51.530;5.050;2024-01-25T11:43:42;102827.25;;;8.00;100.00
80892;BME280;70343;51.530;5.050;2024-01-25T11:46:08;102816.06;;;7.99;100.00
80892;BME280;70343;51.530;5.050;2024-01-25T11:48:34;102823.94;;;8.09;100.00
80892;BME280;70343;51.530;5.050;2024-01-25T11:51:03;102822.72;;;8.13;100.00
80892;BME280;70343;51.530;5.050;2024-01-25T11:53:29;102820.50;;;8.08;100.00
80892;BME280;70343;51.530;5.050;2024-01-25T11:55:55;102800.97;;;8.14;100.00
80892;BME280;70343;51.530;5.050;2024-01-25T11:58:22;102804.84;;;8.20;100.00
80892;BME280;70343;51.530;5.050;2024-01-25T12:00:48;102772.56;;;8.33;100.00
80892;BME280;70343;51.530;5.050;2024-01-25T12:03:14;102767.81;;;8.38;100.00
80892;BME280;70343;51.530;5.050;2024-01-25T12:05:41;102758.28;;;8.28;100.00
80892;BME280;70343;51.530;5.050;2024-01-25T12:08:13;102750.13;;;8.32;100.00
80892;BME280;70343;51.530;5.050;2024-01-25T12:10:39;102747.53;;;8.32;100.00
80892;BME280;70343;51.530;5.050;2024-01-25T12:13:08;102762.91;;;8.24;100.00
80892;BME280;70343;51.530;5.050;2024-01-25T12:15:35;102760.81;;;8.39;100.00
80892;BME280;70343;51.530;5.050;2024-01-25T12:18:00;102761.41;;;8.42;100.00
80892;BME280;70343;51.530;5.050;2024-01-25T12:20:28;102750.56;;;8.37;100.00
80892;BME280;70343;51.530;5.050;2024-01-25T12:22:54;102740.91;;;8.49;100.00
80892;BME280;70343;51.530;5.050;2024-01-25T12:25:19;102744.47;;;8.48;100.00
80892;BME280;70343;51.530;5.050;2024-01-25T12:27:47;102746.94;;;8.49;100.00
80892;BME280;70343;51.530;5.050;2024-01-25T12:30:15;102737.31;;;8.40;100.00
80892;BME280;70343;51.530;5.050;2024-01-25T12:32:40;102742.13;;;8.45;100.00
80892;BME280;70343;51.530;5.050;2024-01-25T12:35:06;102738.44;;;8.47;100.00
80892;BME280;70343;51.530;5.050;2024-01-25T12:37:33;102724.38;;;8.50;100.00
80892;BME280;70343;51.530;5.050;2024-01-25T12:39:58;102731.16;;;8.62;100.00
80892;BME280;70343;51.530;5.050;2024-01-25T12:42:24;102734.25;;;8.56;100.00
80892;BME280;70343;51.530;5.050;2024-01-25T12:44:52;102732.88;;;8.52;100.00